Time;durP1;ratioP1;P1;durP2;ratioP2;P2;SDS_P1;SDS_P2;PMS_P1;PMS_P2;Temp;Humidity;BMP_temperature;BMP_pressure;BME280_temperature;BME280_humidity;BME280_pressure;Samples;Min_cycle;Max_cycle;Signal;HPM_P1;HPM_P2
2022/06/03 00:01:12;;;;;;;3.92;1.60;;;12.60;99.90;;;;;;5109672;28;20480;-81
2022/06/03 00:03:49;;;;;;;5.15;1.55;;;12.50;99.90;;;;;;5109946;28;20964;-81
2022/06/03 00:06:55;;;;;;;3.00;1.60;;;12.50;99.90;;;;;;5123935;27;20439;-80
2022/06/03 00:09:34;;;;;;;5.22;2.00;;;12.50;99.90;;;;;;5108924;28;20427;-81
2022/06/03 00:12:02;;;;;;;4.40;1.83;;;12.50;99.90;;;;;;5110749;28;20409;-81
2022/06/03 00:14:48;;;;;;;4.07;1.77;;;12.50;99.90;;;;;;5110745;28;20757;-80
2022/06/03 00:17:39;;;;;;;5.43;1.70;;;12.50;99.90;;;;;;5118657;27;20433;-80
2022/06/03 00:20:36;;;;;;;3.90;1.90;;;12.40;99.90;;;;;;5110871;27;20420;-80
2022/06/03 00:23:25;;;;;;;4.00;1.85;;;12.40;99.90;;;;;;5110546;28;20463;-81
2022/06/03 00:26:32;;;;;;;4.35;2.00;;;12.40;99.90;;;;;;5108803;28;21088;-80
2022/06/03 00:29:35;;;;;;;4.90;2.25;;;12.40;99.90;;;;;;5123531;27;20430;-80
2022/06/03 00:32:16;;;;;;;5.68;2.03;;;12.40;99.90;;;;;;5115592;27;20409;-80
2022/06/03 00:35:17;;;;;;;3.67;2.10;;;12.40;99.90;;;;;;5118305;27;20425;-81
2022/06/03 00:37:58;;;;;;;3.28;2.03;;;12.40;99.90;;;;;;5108346;28;20751;-81
2022/06/03 00:40:52;;;;;;;6.97;2.30;;;12.40;99.90;;;;;;5110140;28;20408;-81
2022/06/03 00:43:40;;;;;;;4.85;2.08;;;12.30;99.90;;;;;;5120925;27;20453;-81
2022/06/03 00:46:20;;;;;;;5.00;2.17;;;12.30;99.90;;;;;;5124417;27;20669;-81
2022/06/03 00:49:04;;;;;;;2.97;1.70;;;12.30;99.90;;;;;;5113692;27;20420;-81
2022/06/03 00:51:32;;;;;;;4.80;2.13;;;12.30;99.90;;;;;;5106586;27;20472;-81
2022/06/03 00:54:01;;;;;;;3.88;2.00;;;12.20;99.90;;;;;;5120518;27;20408;-81
2022/06/03 00:56:45;;;;;;;4.75;2.00;;;12.20;99.90;;;;;;5124112;27;20403;-81
2022/06/03 00:59:13;;;;;;;5.83;2.33;;;12.20;99.90;;;;;;5117405;27;20481;-81
2022/06/03 01:02:10;;;;;;;5.22;1.90;;;12.00;99.90;;;;;;5115601;27;20409;-81
2022/06/03 01:05:04;;;;;;;3.63;1.63;;;12.00;99.90;;;;;;5117051;27;20814;-81
2022/06/03 01:07:50;;;;;;;5.53;1.77;;;12.00;99.90;;;;;;5109545;28;20408;-81
2022/06/03 01:10:44;;;;;;;4.03;1.88;;;12.00;99.90;;;;;;5109651;27;20578;-81
2022/06/03 01:13:33;;;;;;;3.90;1.65;;;11.90;99.90;;;;;;5126700;27;20844;-81
2022/06/03 01:16:01;;;;;;;5.15;2.17;;;11.80;99.90;;;;;;5120091;27;20441;-81
2022/06/03 01:19:13;;;;;;;4.53;2.35;;;11.80;99.90;;;;;;5120981;27;20411;-80
2022/06/03 01:22:03;;;;;;;5.38;2.28;;;11.80;99.90;;;;;;5122697;27;20418;-81
2022/06/03 01:24:48;;;;;;;4.40;2.38;;;11.80;99.90;;;;;;5114430;27;20490;-81
2022/06/03 01:27:34;;;;;;;5.00;2.10;;;11.80;99.90;;;;;;5127428;27;20452;-81
2022/06/03 01:30:19;;;;;;;4.22;1.80;;;11.80;99.90;;;;;;5110081;27;20428;-80
2022/06/03 01:32:48;;;;;;;4.30;2.20;;;11.80;99.90;;;;;;5128159;27;20931;-81
2022/06/03 01:36:08;;;;;;;3.80;2.17;;;11.80;99.90;;;;;;5117840;27;20484;-80
2022/06/03 01:39:20;;;;;;;4.45;2.42;;;11.80;99.90;;;;;;5058403;28;20429;-81
2022/06/03 01:42:23;;;;;;;4.95;2.47;;;11.80;99.90;;;;;;5023641;28;20414;-80
2022/06/03 01:45:16;;;;;;;4.40;2.60;;;11.70;99.90;;;;;;5122902;27;20416;-81
2022/06/03 01:47:56;;;;;;;5.30;2.70;;;11.80;99.90;;;;;;5122620;27;20406;-80
2022/06/03 01:50:27;;;;;;;4.97;2.60;;;11.70;99.90;;;;;;5127746;27;20434;-81
2022/06/03 01:53:21;;;;;;;4.40;2.67;;;11.70;99.90;;;;;;5126373;27;20423;-81
2022/06/03 01:56:13;;;;;;;6.55;2.90;;;11.70;99.90;;;;;;5113901;27;20415;-81
2022/06/03 01:59:11;;;;;;;6.97;2.83;;;11.60;99.90;;;;;;5125778;27;20426;-82
2022/06/03 02:02:07;;;;;;;4.17;2.53;;;11.60;99.90;;;;;;5127112;27;20446;-81
2022/06/03 02:05:04;;;;;;;3.78;2.05;;;11.60;99.90;;;;;;5113400;27;20409;-81
2022/06/03 02:08:19;;;;;;;6.18;2.67;;;11.50;99.90;;;;;;5120667;27;20411;-81
2022/06/03 02:10:51;;;;;;;4.07;2.25;;;11.50;99.90;;;;;;5103733;27;20440;-81
2022/06/03 02:13:34;;;;;;;5.60;2.38;;;11.50;99.90;;;;;;5108322;28;20408;-80
2022/06/03 02:16:29;;;;;;;6.88;2.28;;;11.50;99.90;;;;;;5106645;28;20408;-81
2022/06/03 02:19:00;;;;;;;4.40;2.20;;;11.50;99.90;;;;;;5073983;27;20928;-81
2022/06/03 02:21:38;;;;;;;5.60;2.40;;;11.50;99.90;;;;;;5113152;27;20452;-81
2022/06/03 02:24:40;;;;;;;3.85;2.25;;;11.50;99.90;;;;;;5106927;28;20928;-81
2022/06/03 02:27:30;;;;;;;5.82;2.55;;;11.50;99.90;;;;;;5121251;27;20408;-81
2022/06/03 02:30:33;;;;;;;6.68;2.47;;;11.50;99.90;;;;;;5107683;28;20462;-81
2022/06/03 02:33:30;;;;;;;3.85;2.33;;;11.50;99.90;;;;;;5117999;28;20418;-81
2022/06/03 02:36:43;;;;;;;6.03;2.80;;;11.50;99.90;;;;;;5120627;27;20811;-81
2022/06/03 02:39:33;;;;;;;5.22;2.60;;;11.50;99.90;;;;;;5121631;28;20436;-81
2022/06/03 02:42:05;;;;;;;5.80;2.88;;;11.50;99.90;;;;;;5106813;28;20499;-81
2022/06/03 02:44:39;;;;;;;7.18;2.70;;;11.50;99.90;;;;;;5107113;28;20820;-81
2022/06/03 02:47:24;;;;;;;4.77;2.77;;;11.50;99.90;;;;;;5108085;28;20464;-81
2022/06/03 02:50:16;;;;;;;6.00;2.90;;;11.50;99.90;;;;;;5115881;27;20429;-81
2022/06/03 02:53:11;;;;;;;4.97;3.15;;;11.50;99.90;;;;;;5111591;28;20412;-81
2022/06/03 02:55:53;;;;;;;5.28;3.05;;;11.50;99.90;;;;;;5110646;28;20465;-81
2022/06/03 02:58:25;;;;;;;6.35;2.90;;;11.50;99.90;;;;;;5119205;27;20415;-81
2022/06/03 03:01:15;;;;;;;6.38;3.00;;;11.40;99.90;;;;;;5131400;27;20884;-81
2022/06/03 03:03:43;;;;;;;6.00;3.00;;;11.40;99.90;;;;;;5124778;27;20409;-81
2022/06/03 03:06:24;;;;;;;6.35;2.50;;;11.50;99.90;;;;;;5118459;27;20424;-81
2022/06/03 03:09:29;;;;;;;5.10;2.30;;;11.40;99.90;;;;;;5116942;27;20411;-81
2022/06/03 03:12:33;;;;;;;5.00;2.40;;;11.40;99.90;;;;;;5110358;28;20416;-80
2022/06/03 03:15:05;;;;;;;6.25;2.80;;;11.40;99.90;;;;;;5110265;28;20412;-81
2022/06/03 03:18:08;;;;;;;4.95;2.53;;;11.40;99.90;;;;;;5120946;27;20444;-81
2022/06/03 03:20:49;;;;;;;5.30;2.60;;;11.40;99.90;;;;;;5110432;28;20450;-81
2022/06/03 03:23:46;;;;;;;6.80;2.70;;;11.40;99.90;;;;;;5110779;28;20747;-81
2022/06/03 03:26:19;;;;;;;6.65;2.67;;;11.40;99.90;;;;;;5110259;28;20503;-81
2022/06/03 03:29:14;;;;;;;5.53;3.03;;;11.40;99.90;;;;;;5111499;28;20396;-81
2022/06/03 03:32:10;;;;;;;3.83;2.22;;;11.40;99.90;;;;;;5111570;28;20523;-81
2022/06/03 03:34:45;;;;;;;5.60;2.47;;;11.50;99.90;;;;;;5121554;27;20925;-81
2022/06/03 03:37:26;;;;;;;4.40;2.50;;;11.50;99.90;;;;;;5111210;28;20412;-81
2022/06/03 03:40:11;;;;;;;5.97;2.60;;;11.40;99.90;;;;;;5111651;27;20754;-81
2022/06/03 03:43:01;;;;;;;5.53;2.65;;;11.40;99.90;;;;;;5130491;27;20421;-81
2022/06/03 03:46:03;;;;;;;7.47;2.53;;;11.40;99.90;;;;;;5115968;27;20410;-81
2022/06/03 03:49:05;;;;;;;4.45;2.60;;;11.50;99.90;;;;;;5113589;27;20413;-82
2022/06/03 03:52:13;;;;;;;3.83;2.28;;;11.50;99.90;;;;;;5122608;27;20403;-81
2022/06/03 03:55:26;;;;;;;5.60;2.58;;;11.50;99.90;;;;;;5118763;27;20516;-81
2022/06/03 03:58:05;;;;;;;5.70;2.50;;;11.60;99.90;;;;;;5067439;28;20416;-81
2022/06/03 04:00:34;;;;;;;6.32;3.10;;;11.60;99.90;;;;;;5050623;28;20419;-81
2022/06/03 04:03:39;;;;;;;6.40;2.92;;;11.60;99.90;;;;;;5074153;28;20408;-81
2022/06/03 04:06:25;;;;;;;5.85;3.08;;;11.70;99.90;;;;;;5115526;27;20414;-81
2022/06/03 04:08:59;;;;;;;6.47;2.88;;;11.70;99.90;;;;;;5110274;27;20415;-81
2022/06/03 04:12:02;;;;;;;7.82;3.45;;;11.70;99.90;;;;;;5123223;27;20492;-81
2022/06/03 04:14:57;;;;;;;6.03;3.35;;;11.80;99.90;;;;;;5109385;28;20409;-81
2022/06/03 04:17:42;;;;;;;6.97;3.33;;;11.80;99.90;;;;;;5124204;27;20415;-81
2022/06/03 04:20:32;;;;;;;6.20;3.42;;;11.80;99.90;;;;;;5109367;28;20690;-81
2022/06/03 04:23:31;;;;;;;6.68;3.55;;;11.90;99.90;;;;;;5092019;28;20412;-81
2022/06/03 04:26:13;;;;;;;6.35;3.60;;;12.00;99.90;;;;;;5110427;27;20420;-81
2022/06/03 04:29:07;;;;;;;5.80;3.38;;;12.00;99.90;;;;;;5120154;27;20400;-81
2022/06/03 04:31:52;;;;;;;6.13;3.63;;;12.10;99.90;;;;;;5108868;27;20914;-81
2022/06/03 04:34:37;;;;;;;7.10;3.80;;;12.10;99.90;;;;;;5091836;28;20415;-82
2022/06/03 04:37:18;;;;;;;6.70;4.07;;;12.20;99.90;;;;;;5108466;28;20445;-82
2022/06/03 04:40:16;;;;;;;7.53;4.10;;;12.20;99.90;;;;;;5108855;28;20944;-81
2022/06/03 04:43:13;;;;;;;5.85;3.70;;;12.30;99.90;;;;;;5108703;28;20488;-81
2022/06/03 04:45:57;;;;;;;7.47;3.88;;;12.30;99.90;;;;;;5119113;27;20422;-80
2022/06/03 04:48:44;;;;;;;6.72;3.83;;;12.30;99.90;;;;;;5123625;27;20477;-80
2022/06/03 04:51:19;;;;;;;6.00;3.77;;;12.40;99.90;;;;;;5122090;27;20526;-80
2022/06/03 04:53:54;;;;;;;6.22;3.65;;;12.40;99.90;;;;;;5114944;27;20406;-80
2022/06/03 04:56:55;;;;;;;6.90;3.60;;;12.40;99.90;;;;;;5128419;27;20403;-81
2022/06/03 04:59:38;;;;;;;7.53;3.60;;;12.50;99.90;;;;;;5118135;27;20416;-81
2022/06/03 05:02:19;;;;;;;6.18;3.92;;;12.50;99.90;;;;;;5109389;28;20988;-81
2022/06/03 05:05:41;;;;;;;6.60;3.80;;;12.50;99.90;;;;;;5109597;28;20910;-80
2022/06/03 05:08:47;;;;;;;8.23;4.13;;;12.60;99.90;;;;;;5056071;28;20415;-80
2022/06/03 05:11:27;;;;;;;6.47;3.97;;;12.60;99.90;;;;;;5059306;28;20436;-81
2022/06/03 05:14:08;;;;;;;7.82;4.65;;;12.70;99.90;;;;;;5124632;27;20486;-80
2022/06/03 05:16:52;;;;;;;7.15;4.53;;;12.70;99.90;;;;;;5128327;27;20439;-81
2022/06/03 05:19:56;;;;;;;9.68;4.80;;;12.70;99.90;;;;;;5128651;27;20407;-80
2022/06/03 05:22:52;;;;;;;10.73;6.13;;;12.80;99.90;;;;;;5097038;27;20494;-81
2022/06/03 05:25:43;;;;;;;10.05;6.22;;;12.90;99.90;;;;;;5126319;27;20761;-81
2022/06/03 05:28:30;;;;;;;9.57;6.20;;;12.90;99.90;;;;;;5118370;27;20415;-81
2022/06/03 05:31:25;;;;;;;9.07;5.93;;;13.00;99.90;;;;;;5129563;27;20510;-81
2022/06/03 05:34:05;;;;;;;9.35;5.85;;;13.10;99.90;;;;;;5127641;27;20919;-81
2022/06/03 05:36:54;;;;;;;9.60;5.10;;;13.10;99.90;;;;;;5115327;27;20422;-81
2022/06/03 05:39:44;;;;;;;9.07;4.80;;;13.10;99.90;;;;;;5119952;27;20497;-80
2022/06/03 05:42:28;;;;;;;6.10;4.70;;;13.20;99.90;;;;;;5127017;27;20415;-76
2022/06/03 05:45:10;;;;;;;6.80;3.97;;;13.20;99.90;;;;;;5129249;27;20457;-79
2022/06/03 05:47:44;;;;;;;5.85;3.65;;;13.20;99.90;;;;;;5121312;27;20947;-78
2022/06/03 05:50:22;;;;;;;7.57;3.50;;;13.20;99.90;;;;;;5121917;27;20881;-77
2022/06/03 05:53:07;;;;;;;6.28;2.97;;;13.30;99.90;;;;;;5125414;27;20499;-78
2022/06/03 05:56:18;;;;;;;5.63;2.88;;;13.30;99.90;;;;;;5127213;27;20542;-78
2022/06/03 05:59:09;;;;;;;5.93;2.92;;;13.30;99.90;;;;;;5096709;28;20966;-78
2022/06/03 06:01:53;;;;;;;6.97;2.35;;;13.40;99.90;;;;;;5125275;27;20459;-78
2022/06/03 06:04:43;;;;;;;6.18;2.50;;;13.40;99.90;;;;;;5128608;27;20411;-78
2022/06/03 06:07:47;;;;;;;5.90;2.90;;;13.50;99.90;;;;;;5114483;27;20476;-79
2022/06/03 06:10:24;;;;;;;5.47;2.70;;;13.60;99.90;;;;;;5127936;27;20426;-79
2022/06/03 06:13:08;;;;;;;5.25;2.90;;;13.60;99.90;;;;;;5128706;27;20410;-79
2022/06/03 06:15:59;;;;;;;5.38;3.03;;;13.60;99.90;;;;;;5112833;27;20430;-78
2022/06/03 06:18:38;;;;;;;5.35;3.13;;;13.60;99.90;;;;;;5129155;27;20459;-79
2022/06/03 06:21:41;;;;;;;6.60;3.60;;;13.70;99.90;;;;;;5129136;27;20414;-78
2022/06/03 06:24:28;;;;;;;6.65;3.70;;;13.70;99.90;;;;;;5128562;27;20414;-79
2022/06/03 06:27:32;;;;;;;6.68;4.03;;;13.70;99.90;;;;;;5127650;27;20411;-78
2022/06/03 06:30:22;;;;;;;5.30;3.53;;;13.80;99.90;;;;;;5126891;27;20793;-79
2022/06/03 06:33:04;;;;;;;6.95;3.72;;;13.90;99.90;;;;;;5114620;28;20919;-78
2022/06/03 06:35:48;;;;;;;7.75;4.15;;;13.90;99.90;;;;;;5127910;28;20943;-78
2022/06/03 06:38:38;;;;;;;6.30;3.97;;;13.90;99.90;;;;;;5127521;27;20421;-78
2022/06/03 06:41:41;;;;;;;6.38;3.20;;;14.00;99.90;;;;;;5128713;27;20514;-79
2022/06/03 06:44:09;;;;;;;7.53;2.60;;;14.00;99.90;;;;;;5127403;27;20795;-78
2022/06/03 06:46:49;;;;;;;5.43;2.70;;;14.00;99.90;;;;;;5128875;27;20407;-78
2022/06/03 06:49:24;;;;;;;6.07;3.03;;;14.10;99.90;;;;;;5127002;27;20414;-79
2022/06/03 06:51:58;;;;;;;7.07;3.25;;;14.10;99.90;;;;;;5128634;27;20399;-78
2022/06/03 06:55:09;;;;;;;12.48;3.83;;;14.10;99.90;;;;;;5124366;27;20424;-78
2022/06/03 06:57:41;;;;;;;17.48;4.80;;;14.20;99.90;;;;;;5089121;27;20453;-78
2022/06/03 07:00:19;;;;;;;10.70;3.80;;;14.30;99.90;;;;;;5127448;27;20438;-78
2022/06/03 07:03:10;;;;;;;7.37;3.40;;;14.40;99.90;;;;;;5128430;27;20406;-78
2022/06/03 07:05:51;;;;;;;16.20;5.10;;;14.40;99.90;;;;;;5128728;27;20426;-79
2022/06/03 07:08:21;;;;;;;5.60;3.60;;;14.50;99.90;;;;;;5127195;27;20394;-78
2022/06/03 07:11:01;;;;;;;8.98;3.92;;;14.60;99.90;;;;;;5127093;27;20936;-79
2022/06/03 07:13:39;;;;;;;4.40;3.20;;;14.70;99.90;;;;;;5113151;27;20826;-78
2022/06/03 07:19:48;;;;;;;11.68;3.70;;;14.70;99.90;;;;;;5083973;27;20414;-78
2022/06/03 07:22:30;;;;;;;5.53;3.00;;;14.80;99.90;;;;;;5128240;27;20398;-78
2022/06/03 07:25:23;;;;;;;7.85;4.28;;;14.80;99.90;;;;;;5127258;27;20414;-78
2022/06/03 07:28:18;;;;;;;5.35;3.20;;;14.90;99.90;;;;;;5114925;28;21416;-78
2022/06/03 07:30:54;;;;;;;6.13;3.20;;;15.00;99.90;;;;;;5126591;27;20992;-78
2022/06/03 07:33:32;;;;;;;4.70;3.23;;;15.10;99.90;;;;;;5127461;27;20463;-79
2022/06/03 07:36:10;;;;;;;8.38;5.40;;;15.20;99.90;;;;;;5127236;27;20492;-78
2022/06/03 07:38:56;;;;;;;5.15;3.40;;;15.20;99.90;;;;;;5129861;27;20410;-78
2022/06/03 07:41:39;;;;;;;28.73;6.27;;;15.30;99.90;;;;;;5119657;27;20394;-78
2022/06/03 07:44:13;;;;;;;5.50;3.58;;;15.40;99.90;;;;;;5130363;27;20496;-79
2022/06/03 07:46:52;;;;;;;44.45;8.40;;;15.40;99.90;;;;;;5131701;27;20470;-78
2022/06/03 07:49:25;;;;;;;7.22;3.45;;;15.50;99.90;;;;;;5131008;27;20415;-79
2022/06/03 07:52:03;;;;;;;6.97;3.25;;;15.60;99.90;;;;;;5130400;27;20502;-79
2022/06/03 07:54:35;;;;;;;5.72;2.80;;;15.70;99.90;;;;;;5131818;27;20406;-78
2022/06/03 07:57:07;;;;;;;4.55;2.47;;;15.80;99.90;;;;;;5132102;27;20399;-79
2022/06/03 07:59:35;;;;;;;5.97;2.60;;;15.80;99.90;;;;;;5131743;27;20467;-79
2022/06/03 08:02:20;;;;;;;4.03;2.55;;;15.90;99.90;;;;;;5130426;27;20455;-78
2022/06/03 08:04:48;;;;;;;5.43;2.60;;;16.00;99.90;;;;;;5115486;27;20403;-79
2022/06/03 08:13:00;;;;;;;5.68;2.72;;;16.30;99.90;;;;;;5130050;27;20439;-79
2022/06/03 08:15:33;;;;;;;4.47;2.00;;;16.30;99.90;;;;;;5128690;27;20410;-78
2022/06/03 08:18:00;;;;;;;4.55;2.20;;;16.30;99.90;;;;;;5130032;27;20399;-78
2022/06/03 08:20:28;;;;;;;5.55;2.50;;;16.40;99.90;;;;;;5129794;27;20743;-78
2022/06/03 08:22:55;;;;;;;2.78;1.90;;;16.50;99.90;;;;;;5130229;27;20410;-79
2022/06/03 08:25:26;;;;;;;3.42;2.28;;;16.60;99.90;;;;;;5112170;27;20423;-78
2022/06/03 08:27:53;;;;;;;4.63;2.50;;;16.60;99.90;;;;;;5131011;27;20885;-78
2022/06/03 08:30:25;;;;;;;12.73;2.73;;;16.70;99.90;;;;;;5129545;27;20517;-78
2022/06/03 08:33:13;;;;;;;3.30;1.70;;;16.80;99.90;;;;;;5129943;27;20806;-79
2022/06/03 08:35:43;;;;;;;4.28;1.80;;;16.90;99.90;;;;;;5128556;27;20501;-78
2022/06/03 08:38:17;;;;;;;3.38;1.60;;;17.00;99.90;;;;;;5129952;27;20418;-78
2022/06/03 08:40:51;;;;;;;5.32;1.80;;;17.00;99.90;;;;;;5129688;27;20466;-79
2022/06/03 08:43:45;;;;;;;7.72;1.77;;;17.20;99.90;;;;;;5130799;27;20431;-79
2022/06/03 08:46:34;;;;;;;2.83;1.58;;;17.20;99.90;;;;;;5115234;27;20410;-79
2022/06/03 08:49:03;;;;;;;2.63;1.38;;;17.30;99.90;;;;;;5130529;27;20442;-78
2022/06/03 08:51:51;;;;;;;2.88;1.40;;;17.40;99.90;;;;;;5129747;27;20430;-78
2022/06/03 08:54:27;;;;;;;2.92;1.40;;;17.40;99.90;;;;;;5130338;27;20772;-78
2022/06/03 08:57:00;;;;;;;3.42;1.30;;;17.50;99.90;;;;;;5112422;27;20939;-78
2022/06/03 08:59:57;;;;;;;3.15;1.48;;;17.60;99.90;;;;;;5129157;27;20415;-78
2022/06/03 09:02:37;;;;;;;2.88;1.25;;;17.80;99.90;;;;;;5116384;27;20436;-78
2022/06/03 09:05:23;;;;;;;3.47;1.33;;;17.90;99.90;;;;;;5116957;27;20463;-78
2022/06/03 09:08:04;;;;;;;2.35;1.05;;;18.00;99.40;;;;;;5128917;27;20403;-79
2022/06/03 09:10:41;;;;;;;2.72;1.10;;;18.10;99.30;;;;;;5128487;27;20471;-78
2022/06/03 09:13:26;;;;;;;3.55;1.20;;;18.20;98.90;;;;;;5128943;27;20406;-78
2022/06/03 09:15:53;;;;;;;3.50;1.30;;;18.30;98.80;;;;;;5119341;27;20408;-78
2022/06/03 09:18:48;;;;;;;3.38;1.35;;;18.50;99.00;;;;;;5118382;27;21007;-79
2022/06/03 09:21:24;;;;;;;3.88;1.50;;;18.50;97.90;;;;;;5126689;27;20884;-79
2022/06/03 09:23:54;;;;;;;3.95;0.90;;;18.60;98.40;;;;;;5120727;27;21185;-78
2022/06/03 09:26:37;;;;;;;2.88;1.08;;;18.70;97.20;;;;;;5130000;27;20383;-79
2022/06/03 09:29:05;;;;;;;1.67;0.82;;;18.90;96.10;;;;;;5128592;27;20430;-79
2022/06/03 09:31:35;;;;;;;2.25;0.93;;;19.20;95.90;;;;;;5120340;27;20400;-78
2022/06/03 09:34:02;;;;;;;2.30;0.70;;;19.40;95.50;;;;;;5129620;27;20405;-79
2022/06/03 09:36:29;;;;;;;2.78;1.00;;;19.70;95.50;;;;;;5129740;27;20430;-79
2022/06/03 09:39:03;;;;;;;1.95;0.85;;;20.00;94.70;;;;;;5129780;27;20481;-79
2022/06/03 09:41:40;;;;;;;3.42;0.90;;;20.30;94.00;;;;;;5128412;27;20422;-79
2022/06/03 09:44:10;;;;;;;3.33;1.20;;;20.50;93.20;;;;;;5129314;27;20414;-79
2022/06/03 09:46:37;;;;;;;2.47;0.90;;;20.80;92.30;;;;;;5127989;27;20410;-80
2022/06/03 09:49:05;;;;;;;2.60;0.90;;;20.90;91.80;;;;;;5120278;27;20402;-79
2022/06/03 09:51:55;;;;;;;1.98;0.70;;;21.10;90.50;;;;;;5114309;27;20748;-79
2022/06/03 09:54:24;;;;;;;3.72;0.88;;;21.20;91.20;;;;;;5110771;27;20406;-79
2022/06/03 09:56:56;;;;;;;1.80;0.80;;;21.50;89.60;;;;;;5128210;27;21155;-79
2022/06/03 09:59:24;;;;;;;2.13;0.80;;;21.70;88.60;;;;;;5128935;27;20480;-79
2022/06/03 10:01:50;;;;;;;1.95;0.82;;;21.80;88.00;;;;;;5129440;27;20406;-79
2022/06/03 10:04:19;;;;;;;1.83;0.80;;;22.00;87.80;;;;;;5128448;27;20445;-79
2022/06/03 10:06:48;;;;;;;2.55;0.68;;;22.20;87.50;;;;;;5127508;27;20423;-79
2022/06/03 10:17:38;;;;;;;73.32;9.30;;;23.10;82.90;;;;;;5117846;27;20899;-80
2022/06/03 10:20:06;;;;;;;1.65;0.70;;;23.20;86.20;;;;;;5121120;27;20407;-79
2022/06/03 10:22:32;;;;;;;2.40;1.00;;;23.30;82.20;;;;;;5108809;28;20415;-80
2022/06/03 10:24:58;;;;;;;2.65;1.25;;;23.40;80.60;;;;;;5128880;27;20399;-79
2022/06/03 10:27:23;;;;;;;2.40;1.10;;;23.40;81.00;;;;;;5128675;27;21085;-79
2022/06/03 10:29:50;;;;;;;3.23;1.20;;;23.50;79.60;;;;;;5127745;27;20430;-79
2022/06/03 10:32:21;;;;;;;2.40;0.90;;;23.60;81.00;;;;;;5127457;28;20494;-79
2022/06/03 10:34:47;;;;;;;2.75;1.10;;;23.80;78.40;;;;;;5128611;27;20471;-80
2022/06/03 10:37:24;;;;;;;1.75;1.00;;;23.90;78.30;;;;;;5127566;27;20907;-79
2022/06/03 10:39:54;;;;;;;1.65;0.82;;;24.00;77.30;;;;;;5127687;28;20407;-80
2022/06/03 10:42:22;;;;;;;8.93;1.38;;;24.10;76.30;;;;;;5114387;27;20405;-80
2022/06/03 10:44:54;;;;;;;64.05;8.73;;;24.30;75.40;;;;;;5127654;27;20490;-79
2022/06/03 10:47:22;;;;;;;2.55;0.77;;;24.40;75.60;;;;;;5124937;27;20401;-79
2022/06/03 10:49:55;;;;;;;3.58;1.15;;;24.40;75.60;;;;;;5115723;28;20447;-80
2022/06/03 11:01:13;;;;;;;4.30;0.98;;;25.10;69.70;;;;;;5128541;27;21032;-80
2022/06/03 11:03:44;;;;;;;2.28;1.00;;;25.10;68.40;;;;;;5128609;27;20398;-80
2022/06/03 11:06:14;;;;;;;1.92;0.70;;;25.00;69.50;;;;;;5113040;27;20403;-79
2022/06/03 11:08:50;;;;;;;4.97;1.07;;;25.10;70.20;;;;;;5127260;28;20482;-80
2022/06/03 11:11:34;;;;;;;4.10;1.10;;;25.20;68.60;;;;;;5127135;27;20427;-79
2022/06/03 11:14:37;;;;;;;3.50;0.80;;;25.20;66.90;;;;;;5131480;27;20403;-80
2022/06/03 11:17:11;;;;;;;2.10;0.90;;;25.30;68.20;;;;;;5116568;27;20408;-80
2022/06/03 11:19:52;;;;;;;6.63;0.85;;;25.40;67.90;;;;;;5124920;27;20410;-80
2022/06/03 11:22:35;;;;;;;2.67;0.80;;;25.60;66.50;;;;;;5114660;27;20938;-80
2022/06/03 11:25:26;;;;;;;8.32;1.20;;;25.80;66.20;;;;;;5127021;27;20485;-79
2022/06/03 11:28:11;;;;;;;3.90;1.20;;;25.90;65.60;;;;;;5131075;27;20406;-80
2022/06/03 11:30:49;;;;;;;2.20;1.10;;;26.10;64.00;;;;;;5130324;27;20500;-80
2022/06/03 11:33:15;;;;;;;3.50;1.00;;;26.20;64.70;;;;;;5114138;27;20478;-80
2022/06/03 11:36:04;;;;;;;4.23;0.80;;;26.30;63.80;;;;;;5130926;27;20481;-80
2022/06/03 11:38:43;;;;;;;1.80;0.73;;;26.30;62.30;;;;;;5132288;27;20491;-80
2022/06/03 11:41:16;;;;;;;2.15;0.60;;;26.30;60.60;;;;;;5118099;27;20403;-80
2022/06/03 11:44:14;;;;;;;3.03;0.60;;;26.30;59.50;;;;;;5130112;27;20413;-80
2022/06/03 11:46:59;;;;;;;2.30;0.70;;;26.30;60.90;;;;;;5109787;27;20447;-80
2022/06/03 11:49:25;;;;;;;2.10;0.70;;;26.40;60.70;;;;;;5131725;27;20482;-80
2022/06/03 11:51:52;;;;;;;2.10;0.60;;;26.60;59.10;;;;;;5130521;27;20401;-80
2022/06/03 11:54:21;;;;;;;1.60;0.50;;;26.70;59.00;;;;;;5130746;27;20790;-80
2022/06/03 11:56:48;;;;;;;3.60;0.80;;;26.80;61.40;;;;;;5131598;27;20398;-80
2022/06/03 11:59:31;;;;;;;2.33;0.73;;;26.80;61.10;;;;;;5113343;27;20837;-78
2022/06/03 12:02:08;;;;;;;2.55;0.80;;;26.90;61.30;;;;;;5130573;27;20973;-78
2022/06/03 12:04:53;;;;;;;2.42;1.30;;;26.90;57.20;;;;;;5131324;27;20946;-77
2022/06/03 12:07:42;;;;;;;2.83;0.57;;;26.90;58.20;;;;;;5131604;27;20414;-78
2022/06/03 12:10:30;;;;;;;2.88;0.57;;;27.10;59.60;;;;;;5119632;27;20422;-78
2022/06/03 12:13:15;;;;;;;5.53;0.60;;;27.30;57.20;;;;;;5129897;27;20414;-77
2022/06/03 12:15:58;;;;;;;3.60;0.77;;;27.40;60.90;;;;;;5131425;27;20489;-77
2022/06/03 12:18:34;;;;;;;3.53;0.50;;;27.30;61.80;;;;;;5117417;27;20398;-78
2022/06/03 12:21:01;;;;;;;2.78;0.52;;;27.30;61.00;;;;;;5130786;27;20451;-78
2022/06/03 12:23:27;;;;;;;3.22;0.45;;;27.10;61.60;;;;;;5118315;27;20396;-78
2022/06/03 12:25:53;;;;;;;3.03;0.60;;;26.90;61.70;;;;;;5131122;27;20451;-77
2022/06/03 12:28:18;;;;;;;3.10;0.50;;;26.80;62.90;;;;;;5130711;27;20413;-78
2022/06/03 12:31:10;;;;;;;4.50;0.60;;;26.70;62.10;;;;;;5131105;27;20418;-78
2022/06/03 12:33:47;;;;;;;3.47;0.60;;;26.70;62.60;;;;;;5129588;27;20465;-78
2022/06/03 12:36:37;;;;;;;3.63;0.70;;;26.70;63.40;;;;;;5129487;27;20984;-78
2022/06/03 12:39:08;;;;;;;3.15;0.60;;;26.60;64.00;;;;;;5128963;27;20411;-78
2022/06/03 12:41:45;;;;;;;3.30;0.60;;;26.70;62.80;;;;;;5129894;27;20870;-78
2022/06/03 12:44:41;;;;;;;3.90;0.70;;;26.70;62.60;;;;;;5129611;27;20490;-77
2022/06/03 12:47:32;;;;;;;5.72;0.85;;;26.70;62.10;;;;;;5130855;27;20490;-78
2022/06/03 12:50:17;;;;;;;3.08;0.80;;;26.60;61.90;;;;;;5129394;27;20437;-77
2022/06/03 12:52:44;;;;;;;3.47;0.70;;;26.40;63.50;;;;;;5128978;27;20481;-78
2022/06/03 12:55:17;;;;;;;2.00;0.52;;;26.40;62.40;;;;;;5130477;27;20453;-78
2022/06/03 12:57:45;;;;;;;3.10;0.67;;;26.30;62.10;;;;;;5129357;27;20410;-77
2022/06/03 13:00:20;;;;;;;2.60;0.53;;;26.30;62.10;;;;;;5129310;27;20942;-78
2022/06/03 13:02:50;;;;;;;2.97;0.50;;;26.30;61.60;;;;;;5130424;27;20926;-78
2022/06/03 13:05:38;;;;;;;3.60;0.50;;;26.20;59.20;;;;;;5128639;27;20459;-78
2022/06/03 13:08:24;;;;;;;2.47;0.40;;;26.10;60.50;;;;;;5130149;27;20387;-78
2022/06/03 13:11:11;;;;;;;1.80;0.45;;;26.10;59.60;;;;;;5129057;27;20924;-78
2022/06/03 13:13:38;;;;;;;3.33;0.60;;;26.10;58.30;;;;;;5117362;27;20407;-77
2022/06/03 13:16:19;;;;;;;2.80;0.55;;;25.90;58.80;;;;;;5130056;27;20414;-78
2022/06/03 13:18:57;;;;;;;3.85;0.68;;;25.70;59.30;;;;;;5128762;27;20464;-77
2022/06/03 13:21:29;;;;;;;2.55;0.60;;;25.60;61.10;;;;;;5128360;27;20415;-77
2022/06/03 13:24:20;;;;;;;3.07;0.60;;;25.70;60.10;;;;;;5103629;27;20415;-78
2022/06/03 13:26:50;;;;;;;3.45;0.65;;;25.60;60.20;;;;;;5128227;27;20416;-78
2022/06/03 13:29:55;;;;;;;3.13;1.20;;;25.90;63.20;;;;;;5128005;27;20407;-78
2022/06/03 13:32:39;;;;;;;3.55;0.85;;;26.30;61.80;;;;;;5129174;27;20406;-78
2022/06/03 13:35:10;;;;;;;2.85;0.70;;;26.40;61.30;;;;;;5113587;27;20435;-78
2022/06/03 13:38:11;;;;;;;2.22;0.57;;;26.50;60.30;;;;;;5115734;27;20489;-78
2022/06/03 13:40:38;;;;;;;2.58;0.57;;;26.40;59.80;;;;;;5076025;27;20415;-77
2022/06/03 13:43:14;;;;;;;10.80;1.05;;;26.20;59.60;;;;;;5128221;27;20398;-78
2022/06/03 13:45:54;;;;;;;17.10;1.70;;;26.10;60.20;;;;;;5129727;27;20411;-78
2022/06/03 13:48:51;;;;;;;3.40;0.70;;;26.00;60.30;;;;;;5129930;27;20460;-77
2022/06/03 13:51:47;;;;;;;2.50;0.40;;;26.10;61.20;;;;;;5115436;27;20740;-78
2022/06/03 13:54:18;;;;;;;2.33;0.73;;;26.10;60.90;;;;;;5129357;27;20891;-78
2022/06/03 13:56:57;;;;;;;4.82;0.50;;;26.10;60.20;;;;;;5128587;27;20410;-78
2022/06/03 13:59:26;;;;;;;2.90;0.60;;;26.20;60.80;;;;;;5128349;27;20399;-78
2022/06/03 14:01:53;;;;;;;4.88;0.80;;;26.30;60.70;;;;;;5118460;27;20807;-77
2022/06/03 14:04:27;;;;;;;3.28;0.60;;;26.40;60.90;;;;;;5124222;27;20531;-77
2022/06/03 14:07:06;;;;;;;6.50;0.93;;;26.50;60.80;;;;;;5129217;27;20403;-78
2022/06/03 14:09:32;;;;;;;2.53;0.52;;;26.40;59.80;;;;;;5127709;27;20403;-77
2022/06/03 14:12:16;;;;;;;2.90;0.57;;;26.50;59.70;;;;;;5119788;27;20415;-78
2022/06/03 14:14:48;;;;;;;4.00;0.80;;;26.50;60.10;;;;;;5125501;27;20414;-78
2022/06/03 14:17:46;;;;;;;4.20;0.60;;;26.60;59.50;;;;;;5129208;27;20398;-78
2022/06/03 14:20:16;;;;;;;2.42;0.50;;;26.70;59.20;;;;;;5116231;27;20407;-78
2022/06/03 14:23:15;;;;;;;3.00;0.70;;;26.90;58.20;;;;;;5120560;27;20408;-78
2022/06/03 14:25:57;;;;;;;3.08;0.60;;;27.10;58.70;;;;;;5115331;27;20546;-78
2022/06/03 14:28:45;;;;;;;2.15;0.40;;;27.20;58.10;;;;;;5127131;27;20417;-78
2022/06/03 14:31:20;;;;;;;2.03;0.40;;;27.10;57.40;;;;;;5118434;27;20422;-77